Doans, Indiana
Current Conditions -  °F | °C
As of 6:53 PM on Monday 24 Nov 2014 (Local Time) from KBMG Reporting Station
Overcast Overcast  
Wind Chill: 31°   Ceiling: 4000
Heat Index: 39°   Visibility: 10mi
Dew Point: 28°   Wind: 13mph
Humidity: 65%   Direction: 250°WSW
Pressure: 29.85"   Gusts: 23mph
Location:  39.0306°N, 86.8553°W
Report Text: KBMG 242353Z 25011G20KT 10SM BKN040 OVC055 04/M02 A2985 RMK AO2 SLP107 60000 T00391022 10056 20039 53035
Loading
Personal Weather Stations






























Interactive Weather Map New forecast layout! Learn more

10-Day Weather Forecast

Advertisements
Track Severe Weather on mobile